Time;durP1;ratioP1;P1;durP2;ratioP2;P2;SDS_P1;SDS_P2;PMS_P1;PMS_P2;Temp;Humidity;BMP_temperature;BMP_pressure;BME280_temperature;BME280_humidity;BME280_pressure;Samples;Min_cycle;Max_cycle;Signal;HPM_P1;HPM_P2
2023/04/08 00:00:50;;;;;;;;;;;20.90;42.00;;;;;;1492640;78;1539;-63
2023/04/08 00:02:52;;;;;;;;;;;20.90;42.00;;;;;;1507949;77;776;-63
2023/04/08 00:04:54;;;;;;;;;;;20.90;42.00;;;;;;1517539;76;1952;-63
2023/04/08 00:06:56;;;;;;;;;;;20.90;42.00;;;;;;1482885;78;762;-62
2023/04/08 00:08:58;;;;;;;;;;;20.90;41.90;;;;;;1488986;78;728;-63
2023/04/08 00:11:00;;;;;;;;;;;20.90;41.90;;;;;;1478736;78;789;-63
2023/04/08 00:13:02;;;;;;;;;;;20.90;41.90;;;;;;1490224;78;772;-63
2023/04/08 00:15:04;;;;;;;;;;;20.90;41.90;;;;;;1492960;78;1569;-62
2023/04/08 00:17:06;;;;;;;;;;;20.90;41.90;;;;;;1505978;77;718;-61
2023/04/08 00:19:08;;;;;;;;;;;20.90;42.00;;;;;;1494300;78;929;-62
2023/04/08 00:21:10;;;;;;;;;;;20.90;42.10;;;;;;1498751;78;747;-62
2023/04/08 00:23:11;;;;;;;;;;;20.90;42.00;;;;;;1491670;78;1148;-60
2023/04/08 00:25:13;;;;;;;;;;;20.90;42.00;;;;;;1496111;78;1933;-63
2023/04/08 00:27:15;;;;;;;;;;;20.90;42.00;;;;;;1498948;79;685;-63
2023/04/08 00:29:17;;;;;;;;;;;20.90;42.10;;;;;;1483809;79;1531;-63
2023/04/08 00:31:19;;;;;;;;;;;20.90;42.10;;;;;;1502902;77;745;-63
2023/04/08 00:33:23;;;;;;;;;;;20.90;42.30;;;;;;1505158;77;1143;-63
2023/04/08 00:35:25;;;;;;;;;;;20.80;42.80;;;;;;1509736;78;1533;-63
2023/04/08 00:37:27;;;;;;;;;;;20.70;43.10;;;;;;1505454;78;594;-62
2023/04/08 00:39:29;;;;;;;;;;;20.70;43.00;;;;;;1506693;78;771;-61
2023/04/08 00:41:31;;;;;;;;;;;20.70;43.10;;;;;;1511393;77;745;-61
2023/04/08 00:43:33;;;;;;;;;;;20.80;43.20;;;;;;1499799;77;1219;-62
2023/04/08 00:45:34;;;;;;;;;;;20.80;43.20;;;;;;1511961;76;1926;-62
2023/04/08 00:47:37;;;;;;;;;;;20.80;43.20;;;;;;1509999;78;789;-63
2023/04/08 00:49:39;;;;;;;;;;;20.80;43.30;;;;;;1513223;78;778;-62
2023/04/08 00:51:41;;;;;;;;;;;20.80;43.40;;;;;;1508395;78;773;-62
2023/04/08 00:53:43;;;;;;;;;;;20.80;43.30;;;;;;1508052;78;1151;-62
2023/04/08 00:55:45;;;;;;;;;;;20.70;44.00;;;;;;1515855;78;1338;-62
2023/04/08 00:57:47;;;;;;;;;;;20.70;43.70;;;;;;1504153;78;698;-62
2023/04/08 00:59:49;;;;;;;;;;;20.70;43.60;;;;;;1501460;78;746;-62
2023/04/08 01:01:52;;;;;;;;;;;20.80;43.40;;;;;;1511524;78;788;-62
2023/04/08 01:04:02;;;;;;;;;;;20.80;43.20;;;;;;1511184;77;2101;-62
2023/04/08 01:06:05;;;;;;;;;;;20.80;43.30;;;;;;1509411;77;1960;-63
2023/04/08 01:08:08;;;;;;;;;;;20.70;43.30;;;;;;1512503;78;721;-62
2023/04/08 01:10:11;;;;;;;;;;;20.80;43.20;;;;;;1514533;78;1647;-61
2023/04/08 01:12:15;;;;;;;;;;;20.80;43.30;;;;;;1507192;77;859;-61
2023/04/08 01:14:18;;;;;;;;;;;20.90;43.40;;;;;;1498753;78;2105;-61
2023/04/08 01:16:20;;;;;;;;;;;20.80;43.30;;;;;;1509335;77;1943;-62
2023/04/08 01:18:22;;;;;;;;;;;20.80;43.40;;;;;;1502868;77;710;-62
2023/04/08 01:20:26;;;;;;;;;;;20.80;43.30;;;;;;1499203;78;775;-60
2023/04/08 01:22:47;;;;;;;;;;;20.70;43.40;;;;;;1507965;78;807;-63
2023/04/08 01:24:49;;;;;;;;;;;20.80;43.40;;;;;;1508254;77;1962;-62
2023/04/08 01:26:51;;;;;;;;;;;20.70;43.60;;;;;;1509950;77;755;-63
2023/04/08 01:28:54;;;;;;;;;;;20.70;43.60;;;;;;1517131;78;772;-63
2023/04/08 01:30:56;;;;;;;;;;;20.70;43.60;;;;;;1510622;78;692;-62
2023/04/08 01:32:58;;;;;;;;;;;20.70;43.80;;;;;;1489020;78;729;-62
2023/04/08 01:35:00;;;;;;;;;;;20.70;43.60;;;;;;1508826;78;1112;-62
2023/04/08 01:37:02;;;;;;;;;;;20.60;43.50;;;;;;1503996;78;765;-63
2023/04/08 01:39:04;;;;;;;;;;;20.60;43.60;;;;;;1516073;78;1543;-63
2023/04/08 01:41:06;;;;;;;;;;;20.70;43.30;;;;;;1506614;78;756;-62
2023/04/08 01:43:08;;;;;;;;;;;20.80;43.10;;;;;;1481287;79;658;-61
2023/04/08 01:45:10;;;;;;;;;;;20.80;42.80;;;;;;1517338;78;1940;-62
2023/04/08 01:47:13;;;;;;;;;;;20.90;42.80;;;;;;1543432;77;1133;-61
2023/04/08 01:49:15;;;;;;;;;;;20.90;42.70;;;;;;1545776;77;707;-62
2023/04/08 01:51:17;;;;;;;;;;;20.90;42.60;;;;;;1545149;77;703;-61
2023/04/08 01:53:19;;;;;;;;;;;20.90;42.50;;;;;;1544816;77;1524;-61
2023/04/08 01:55:21;;;;;;;;;;;20.90;42.40;;;;;;1538770;77;771;-62
2023/04/08 01:57:24;;;;;;;;;;;20.90;42.40;;;;;;1544801;77;823;-62
2023/04/08 01:59:26;;;;;;;;;;;20.90;42.40;;;;;;1539992;77;758;-60
2023/04/08 02:01:28;;;;;;;;;;;21.00;42.40;;;;;;1540532;77;741;-63
2023/04/08 02:03:30;;;;;;;;;;;21.00;42.40;;;;;;1534763;77;1155;-60
2023/04/08 02:05:33;;;;;;;;;;;21.00;42.40;;;;;;1538563;77;1937;-62
2023/04/08 02:07:35;;;;;;;;;;;21.00;42.30;;;;;;1539148;77;1545;-60
2023/04/08 02:09:37;;;;;;;;;;;20.90;42.60;;;;;;1532785;77;764;-62
2023/04/08 02:11:39;;;;;;;;;;;20.90;42.60;;;;;;1541753;77;732;-62
2023/04/08 02:13:41;;;;;;;;;;;20.90;42.60;;;;;;1538335;77;1136;-61
2023/04/08 02:15:44;;;;;;;;;;;21.00;42.60;;;;;;1539205;77;731;-62
2023/04/08 02:17:49;;;;;;;;;;;20.90;42.60;;;;;;1531350;77;770;-62
2023/04/08 02:19:52;;;;;;;;;;;20.90;42.70;;;;;;1548767;77;816;-61
2023/04/08 02:21:55;;;;;;;;;;;20.90;42.70;;;;;;1536128;77;1687;-61
2023/04/08 02:23:58;;;;;;;;;;;20.90;42.70;;;;;;1536237;77;1835;-60
2023/04/08 02:26:00;;;;;;;;;;;20.90;42.70;;;;;;1541836;77;1921;-62
2023/04/08 02:28:04;;;;;;;;;;;20.90;42.70;;;;;;1535111;77;710;-61
2023/04/08 02:30:07;;;;;;;;;;;20.80;42.70;;;;;;1546462;77;1770;-60
2023/04/08 02:32:09;;;;;;;;;;;20.80;42.70;;;;;;1545051;77;707;-61
2023/04/08 02:34:11;;;;;;;;;;;20.80;42.70;;;;;;1538582;77;1596;-61
2023/04/08 02:36:13;;;;;;;;;;;20.80;42.70;;;;;;1534096;77;741;-60
2023/04/08 02:38:15;;;;;;;;;;;20.80;42.60;;;;;;1534695;77;692;-61
2023/04/08 02:40:25;;;;;;;;;;;20.80;42.70;;;;;;1529782;77;734;-61
2023/04/08 02:42:27;;;;;;;;;;;20.70;42.80;;;;;;1540893;77;778;-60
2023/04/08 02:44:29;;;;;;;;;;;20.80;42.80;;;;;;1540260;77;1151;-59
2023/04/08 02:46:30;;;;;;;;;;;20.80;42.80;;;;;;1536987;77;1909;-61
2023/04/08 02:48:32;;;;;;;;;;;20.80;42.90;;;;;;1508767;77;1580;-59
2023/04/08 02:50:34;;;;;;;;;;;20.80;42.90;;;;;;1518084;78;705;-60
2023/04/08 02:52:36;;;;;;;;;;;20.80;42.90;;;;;;1519407;77;787;-61
2023/04/08 02:54:38;;;;;;;;;;;20.70;43.00;;;;;;1515098;78;1111;-61
2023/04/08 02:56:40;;;;;;;;;;;20.80;43.00;;;;;;1504118;78;718;-61
2023/04/08 02:58:42;;;;;;;;;;;20.80;43.00;;;;;;1514775;78;686;-61
2023/04/08 03:00:44;;;;;;;;;;;20.80;43.00;;;;;;1522192;78;699;-59
2023/04/08 03:02:46;;;;;;;;;;;20.70;42.90;;;;;;1518384;78;1415;-61
2023/04/08 03:04:48;;;;;;;;;;;20.80;42.90;;;;;;1512175;77;1085;-62
2023/04/08 03:06:50;;;;;;;;;;;20.70;43.00;;;;;;1513661;78;1942;-62
2023/04/08 03:08:51;;;;;;;;;;;20.70;42.90;;;;;;1518453;78;741;-62
2023/04/08 03:10:53;;;;;;;;;;;20.70;43.00;;;;;;1512453;78;627;-61
2023/04/08 03:12:55;;;;;;;;;;;20.70;43.00;;;;;;1504492;77;985;-61
2023/04/08 03:14:57;;;;;;;;;;;20.70;43.10;;;;;;1516212;78;1137;-61
2023/04/08 03:16:59;;;;;;;;;;;20.70;43.10;;;;;;1503913;78;1529;-60
2023/04/08 03:19:01;;;;;;;;;;;20.80;43.00;;;;;;1508711;78;824;-62
2023/04/08 03:21:03;;;;;;;;;;;20.70;43.00;;;;;;1521793;78;812;-59
2023/04/08 03:23:05;;;;;;;;;;;20.80;43.00;;;;;;1507804;78;759;-62
2023/04/08 03:25:07;;;;;;;;;;;20.70;43.00;;;;;;1509368;78;1144;-62
2023/04/08 03:27:09;;;;;;;;;;;20.80;43.10;;;;;;1509482;78;1908;-62
2023/04/08 03:29:11;;;;;;;;;;;20.80;43.10;;;;;;1505092;78;680;-63
2023/04/08 03:31:13;;;;;;;;;;;20.80;43.20;;;;;;1499611;78;1550;-61
2023/04/08 03:33:15;;;;;;;;;;;20.70;43.30;;;;;;1518511;77;1089;-60
2023/04/08 03:35:17;;;;;;;;;;;20.70;43.30;;;;;;1504847;77;688;-60
2023/04/08 03:37:19;;;;;;;;;;;20.70;43.40;;;;;;1506211;78;715;-61
2023/04/08 03:39:21;;;;;;;;;;;20.70;43.30;;;;;;1507398;78;569;-61
2023/04/08 03:41:23;;;;;;;;;;;20.70;43.30;;;;;;1511148;78;816;-60
2023/04/08 03:43:25;;;;;;;;;;;20.70;43.20;;;;;;1516311;78;1105;-60
2023/04/08 03:45:27;;;;;;;;;;;20.80;43.00;;;;;;1520113;78;1924;-62
2023/04/08 03:47:28;;;;;;;;;;;20.80;42.90;;;;;;1517437;77;1008;-61
2023/04/08 03:49:30;;;;;;;;;;;20.80;42.80;;;;;;1512689;78;744;-61
2023/04/08 03:51:32;;;;;;;;;;;20.80;42.80;;;;;;1558377;74;666;-60
2023/04/08 03:53:34;;;;;;;;;;;20.70;42.80;;;;;;1556013;74;1173;-61
2023/04/08 03:55:36;;;;;;;;;;;20.80;42.80;;;;;;1535005;76;785;-60
2023/04/08 03:57:38;;;;;;;;;;;20.80;42.80;;;;;;1511164;78;776;-61
2023/04/08 03:59:40;;;;;;;;;;;20.80;42.80;;;;;;1508126;78;1549;-60
2023/04/08 04:01:42;;;;;;;;;;;20.80;42.80;;;;;;1575259;74;709;-61
2023/04/08 04:03:44;;;;;;;;;;;20.80;42.80;;;;;;1553439;74;1150;-62
2023/04/08 04:05:46;;;;;;;;;;;20.80;42.80;;;;;;1564315;74;1934;-60
2023/04/08 04:07:48;;;;;;;;;;;20.70;43.10;;;;;;1554881;74;599;-61
2023/04/08 04:09:53;;;;;;;;;;;20.70;43.10;;;;;;1568039;74;703;-62
2023/04/08 04:11:53;;;;;;;;;;;20.80;43.10;;;;;;1564880;74;1671;-62
2023/04/08 04:13:55;;;;;;;;;;;20.80;43.10;;;;;;1557369;74;1673;-62
2023/04/08 04:15:57;;;;;;;;;;;20.70;43.10;;;;;;1593282;74;589;-62
2023/04/08 04:17:59;;;;;;;;;;;20.80;43.10;;;;;;1553319;74;641;-63
2023/04/08 04:20:03;;;;;;;;;;;20.80;43.10;;;;;;1554812;74;770;-61
2023/04/08 04:22:04;;;;;;;;;;;20.80;43.20;;;;;;1549264;74;702;-62
2023/04/08 04:24:06;;;;;;;;;;;20.70;43.20;;;;;;1553360;74;1147;-59
2023/04/08 04:26:09;;;;;;;;;;;20.80;43.00;;;;;;1556678;74;1936;-62
2023/04/08 04:28:10;;;;;;;;;;;20.80;42.90;;;;;;1565242;74;1677;-61
2023/04/08 04:30:14;;;;;;;;;;;20.80;42.80;;;;;;1566327;74;716;-62
2023/04/08 04:32:16;;;;;;;;;;;20.80;42.90;;;;;;1561138;74;776;-63
2023/04/08 04:34:18;;;;;;;;;;;20.90;42.90;;;;;;1573252;74;1086;-62
2023/04/08 04:36:20;;;;;;;;;;;20.80;42.80;;;;;;1574775;74;712;-61
2023/04/08 04:38:22;;;;;;;;;;;20.90;42.90;;;;;;1576579;74;775;-61
2023/04/08 04:40:24;;;;;;;;;;;20.80;42.80;;;;;;1564582;74;802;-62
2023/04/08 04:42:26;;;;;;;;;;;20.80;42.90;;;;;;1563057;74;1653;-60
2023/04/08 04:44:28;;;;;;;;;;;20.80;42.90;;;;;;1565704;74;1130;-62
2023/04/08 04:46:29;;;;;;;;;;;20.70;43.00;;;;;;1552453;74;1924;-63
2023/04/08 04:48:31;;;;;;;;;;;20.80;43.10;;;;;;1568815;75;1074;-63
2023/04/08 04:50:33;;;;;;;;;;;20.70;43.60;;;;;;1563604;75;765;-61
2023/04/08 04:52:36;;;;;;;;;;;20.80;43.40;;;;;;1567432;75;780;-62
2023/04/08 04:54:37;;;;;;;;;;;20.80;43.30;;;;;;1561671;74;1174;-62
2023/04/08 04:56:39;;;;;;;;;;;20.80;43.20;;;;;;1560477;74;671;-63
2023/04/08 04:58:41;;;;;;;;;;;20.90;43.30;;;;;;1562246;75;709;-62
2023/04/08 05:00:43;;;;;;;;;;;20.80;43.50;;;;;;1571650;75;841;-60
2023/04/08 05:02:45;;;;;;;;;;;20.70;43.70;;;;;;1556297;75;796;-62
2023/04/08 05:04:47;;;;;;;;;;;20.80;43.60;;;;;;1570585;74;1108;-62
2023/04/08 05:06:49;;;;;;;;;;;20.80;43.30;;;;;;1561706;75;1930;-61
2023/04/08 05:08:51;;;;;;;;;;;20.80;43.20;;;;;;1532497;77;1541;-62
2023/04/08 05:10:54;;;;;;;;;;;20.80;43.10;;;;;;1502875;77;866;-61
2023/04/08 05:12:56;;;;;;;;;;;20.90;43.10;;;;;;1534567;77;788;-61
2023/04/08 05:14:58;;;;;;;;;;;20.90;43.00;;;;;;1510872;77;1147;-61
2023/04/08 05:17:00;;;;;;;;;;;20.90;43.10;;;;;;1506441;77;723;-62
2023/04/08 05:19:02;;;;;;;;;;;20.80;42.90;;;;;;1507374;77;761;-62
2023/04/08 05:21:04;;;;;;;;;;;20.80;42.90;;;;;;1559284;75;746;-62
2023/04/08 05:23:06;;;;;;;;;;;20.80;43.00;;;;;;1553110;75;1252;-61
2023/04/08 05:25:08;;;;;;;;;;;20.90;43.10;;;;;;1541303;75;1142;-63
2023/04/08 05:27:10;;;;;;;;;;;20.80;42.90;;;;;;1555395;75;1930;-63
2023/04/08 05:29:12;;;;;;;;;;;20.80;42.90;;;;;;1542034;74;710;-60
2023/04/08 05:31:18;;;;;;;;;;;20.80;43.00;;;;;;1553990;74;585;-61
2023/04/08 05:33:20;;;;;;;;;;;20.80;42.90;;;;;;1566794;74;1138;-62
2023/04/08 05:35:21;;;;;;;;;;;20.80;43.10;;;;;;1560886;75;662;-60
2023/04/08 05:37:23;;;;;;;;;;;20.70;43.20;;;;;;1532009;76;1530;-62
2023/04/08 05:39:25;;;;;;;;;;;20.80;43.10;;;;;;1529777;77;682;-61
2023/04/08 05:41:27;;;;;;;;;;;20.80;43.10;;;;;;1522694;77;691;-62
2023/04/08 05:43:29;;;;;;;;;;;20.90;43.20;;;;;;1523856;76;1100;-62
2023/04/08 05:45:31;;;;;;;;;;;20.80;43.10;;;;;;1527191;77;555;-61
2023/04/08 05:47:33;;;;;;;;;;;20.80;43.10;;;;;;1527212;77;1934;-60
2023/04/08 05:49:35;;;;;;;;;;;20.70;43.30;;;;;;1512882;76;1138;-62
2023/04/08 05:51:37;;;;;;;;;;;20.80;43.40;;;;;;1511336;77;1554;-62
2023/04/08 05:53:39;;;;;;;;;;;20.90;43.50;;;;;;1526686;77;1291;-62
2023/04/08 05:55:41;;;;;;;;;;;20.80;43.40;;;;;;1526470;77;938;-62
2023/04/08 05:57:42;;;;;;;;;;;20.90;43.60;;;;;;1531015;77;706;-62
2023/04/08 05:59:44;;;;;;;;;;;20.90;43.60;;;;;;1500850;76;723;-62
2023/04/08 06:01:46;;;;;;;;;;;20.90;43.60;;;;;;1514891;77;627;-60
2023/04/08 06:03:48;;;;;;;;;;;20.90;43.60;;;;;;1517356;77;1131;-60
2023/04/08 06:05:50;;;;;;;;;;;20.80;43.50;;;;;;1484184;78;1603;-61
2023/04/08 06:07:52;;;;;;;;;;;20.90;43.60;;;;;;1497499;79;1945;-60
2023/04/08 06:09:54;;;;;;;;;;;20.80;43.70;;;;;;1499566;79;759;-59
2023/04/08 06:11:56;;;;;;;;;;;20.80;43.70;;;;;;1503892;79;780;-62
2023/04/08 06:13:58;;;;;;;;;;;20.80;43.70;;;;;;1552710;75;1097;-62
2023/04/08 06:16:01;;;;;;;;;;;20.80;43.80;;;;;;1579349;75;673;-61
2023/04/08 06:18:03;;;;;;;;;;;20.80;43.80;;;;;;1558606;75;1055;-60
2023/04/08 06:20:05;;;;;;;;;;;20.90;43.80;;;;;;1551480;75;1576;-60
2023/04/08 06:22:07;;;;;;;;;;;20.80;43.90;;;;;;1570390;75;813;-61
2023/04/08 06:24:09;;;;;;;;;;;20.80;43.90;;;;;;1566071;75;1139;-61
2023/04/08 06:26:12;;;;;;;;;;;20.90;43.90;;;;;;1571735;75;714;-64
2023/04/08 06:28:14;;;;;;;;;;;20.80;44.20;;;;;;1553129;75;1905;-64
2023/04/08 06:30:16;;;;;;;;;;;20.80;43.80;;;;;;1562604;75;708;-63
2023/04/08 06:32:18;;;;;;;;;;;20.90;43.60;;;;;;1545359;75;737;-63
2023/04/08 06:34:19;;;;;;;;;;;20.90;43.40;;;;;;1567944;75;1485;-63
2023/04/08 06:36:21;;;;;;;;;;;20.90;43.30;;;;;;1565925;75;688;-61
2023/04/08 06:38:23;;;;;;;;;;;20.90;43.10;;;;;;1554858;75;604;-62
2023/04/08 06:40:25;;;;;;;;;;;20.90;43.00;;;;;;1568703;75;718;-62
2023/04/08 06:42:27;;;;;;;;;;;20.90;43.00;;;;;;1559319;74;1252;-65
2023/04/08 06:44:29;;;;;;;;;;;20.90;42.90;;;;;;1554383;74;1530;-64
2023/04/08 06:46:31;;;;;;;;;;;20.90;42.90;;;;;;1553763;74;1912;-63
2023/04/08 06:48:33;;;;;;;;;;;20.80;42.80;;;;;;1550161;75;1496;-63
2023/04/08 06:50:35;;;;;;;;;;;20.80;42.80;;;;;;1560351;74;1227;-64
2023/04/08 06:52:37;;;;;;;;;;;20.80;42.70;;;;;;1552853;74;1492;-63
2023/04/08 06:54:39;;;;;;;;;;;20.80;42.80;;;;;;1559272;74;1532;-63
2023/04/08 06:56:41;;;;;;;;;;;20.80;42.80;;;;;;1555851;74;1075;-64
2023/04/08 06:58:43;;;;;;;;;;;20.70;42.80;;;;;;1559215;74;1826;-65
2023/04/08 07:00:46;;;;;;;;;;;20.80;42.80;;;;;;1551487;74;1512;-64
2023/04/08 07:02:48;;;;;;;;;;;20.80;42.80;;;;;;1558725;74;1518;-64
2023/04/08 07:04:49;;;;;;;;;;;20.80;42.80;;;;;;1559510;75;1537;-62
2023/04/08 07:06:51;;;;;;;;;;;20.80;42.80;;;;;;1555570;75;1949;-63
2023/04/08 07:08:53;;;;;;;;;;;20.80;42.80;;;;;;1557587;74;1506;-63
2023/04/08 07:10:55;;;;;;;;;;;20.80;42.80;;;;;;1554302;74;1528;-63
2023/04/08 07:12:57;;;;;;;;;;;20.80;42.80;;;;;;1554973;74;746;-64
2023/04/08 07:14:59;;;;;;;;;;;20.80;42.80;;;;;;1555170;75;1152;-63
2023/04/08 07:17:01;;;;;;;;;;;20.80;42.90;;;;;;1554611;75;1451;-64
2023/04/08 07:19:03;;;;;;;;;;;20.70;42.90;;;;;;1543582;75;735;-63
2023/04/08 07:21:04;;;;;;;;;;;20.80;42.90;;;;;;1561211;75;713;-63
2023/04/08 07:23:06;;;;;;;;;;;20.80;42.90;;;;;;1552823;75;666;-62
2023/04/08 07:25:08;;;;;;;;;;;20.70;42.90;;;;;;1552937;74;1121;-61
2023/04/08 07:27:10;;;;;;;;;;;20.70;42.90;;;;;;1552283;75;1919;-64
2023/04/08 07:29:12;;;;;;;;;;;20.70;42.90;;;;;;1557552;75;769;-62
2023/04/08 07:31:15;;;;;;;;;;;20.70;42.90;;;;;;1519427;76;1599;-64
2023/04/08 07:33:17;;;;;;;;;;;20.70;43.00;;;;;;1487592;78;1189;-61
2023/04/08 07:35:23;;;;;;;;;;;20.70;42.90;;;;;;1494637;78;777;-63
2023/04/08 07:37:22;;;;;;;;;;;20.70;43.00;;;;;;1496661;78;1692;-63
2023/04/08 07:39:24;;;;;;;;;;;20.70;43.00;;;;;;1503905;79;702;-64
2023/04/08 07:41:26;;;;;;;;;;;20.70;43.00;;;;;;1559927;75;677;-62
2023/04/08 07:43:28;;;;;;;;;;;20.70;43.00;;;;;;1564784;75;1286;-63
2023/04/08 07:45:30;;;;;;;;;;;20.60;42.80;;;;;;1555685;75;583;-62
2023/04/08 07:47:32;;;;;;;;;;;20.70;43.00;;;;;;1562230;75;1922;-63
2023/04/08 07:49:34;;;;;;;;;;;20.70;43.00;;;;;;1560010;75;606;-64
2023/04/08 07:51:36;;;;;;;;;;;20.70;43.00;;;;;;1560527;74;759;-64
2023/04/08 07:53:38;;;;;;;;;;;20.70;43.00;;;;;;1511753;77;1133;-63
2023/04/08 07:55:41;;;;;;;;;;;20.70;43.10;;;;;;1490432;79;793;-63
2023/04/08 07:57:43;;;;;;;;;;;20.70;43.10;;;;;;1504479;79;1527;-62
2023/04/08 07:59:45;;;;;;;;;;;20.70;43.10;;;;;;1555643;74;813;-64
2023/04/08 08:01:47;;;;;;;;;;;20.70;43.10;;;;;;1548226;75;741;-62
2023/04/08 08:03:49;;;;;;;;;;;20.70;43.10;;;;;;1554313;75;1133;-63
2023/04/08 08:05:51;;;;;;;;;;;20.60;43.00;;;;;;1560620;74;1121;-63
2023/04/08 08:07:53;;;;;;;;;;;20.60;43.00;;;;;;1557095;74;1935;-62
2023/04/08 08:09:55;;;;;;;;;;;20.60;42.90;;;;;;1552603;75;1509;-63
2023/04/08 08:11:57;;;;;;;;;;;20.60;43.00;;;;;;1560544;74;1488;-62
2023/04/08 08:13:59;;;;;;;;;;;20.60;43.10;;;;;;1556069;75;1340;-63
2023/04/08 08:16:02;;;;;;;;;;;20.60;43.00;;;;;;1551189;74;1238;-61
2023/04/08 08:18:04;;;;;;;;;;;20.60;43.00;;;;;;1555843;74;1204;-62
2023/04/08 08:20:06;;;;;;;;;;;20.70;43.10;;;;;;1555517;74;1507;-63
2023/04/08 08:22:08;;;;;;;;;;;20.60;43.00;;;;;;1545975;74;1479;-63
2023/04/08 08:24:10;;;;;;;;;;;20.60;43.10;;;;;;1558819;74;1488;-62
2023/04/08 08:26:12;;;;;;;;;;;20.60;43.60;;;;;;1549985;74;1527;-62
2023/04/08 08:28:14;;;;;;;;;;;20.60;44.10;;;;;;1566530;74;1931;-61
2023/04/08 08:30:17;;;;;;;;;;;20.50;45.00;;;;;;1551698;74;1053;-61
2023/04/08 08:32:19;;;;;;;;;;;20.40;43.90;;;;;;1558155;74;1830;-62
2023/04/08 08:34:21;;;;;;;;;;;20.40;42.50;;;;;;1552771;75;1508;-59
2023/04/08 08:36:23;;;;;;;;;;;20.50;41.60;;;;;;1552155;75;1551;-61
2023/04/08 08:38:25;;;;;;;;;;;20.50;40.30;;;;;;1539718;74;1483;-60
2023/04/08 08:40:26;;;;;;;;;;;20.40;40.00;;;;;;1554498;75;1477;-61
2023/04/08 08:42:28;;;;;;;;;;;20.30;40.40;;;;;;1522587;76;1279;-58
2023/04/08 08:44:31;;;;;;;;;;;20.30;40.40;;;;;;1518574;77;1582;-59
2023/04/08 08:46:33;;;;;;;;;;;20.30;39.90;;;;;;1504094;77;1507;-60
2023/04/08 08:48:37;;;;;;;;;;;20.20;40.40;;;;;;1478592;78;1963;-59
2023/04/08 08:50:38;;;;;;;;;;;20.20;40.30;;;;;;1480774;78;1448;-61
2023/04/08 08:52:42;;;;;;;;;;;20.30;40.40;;;;;;1503389;78;1471;-62
2023/04/08 08:54:45;;;;;;;;;;;20.30;40.10;;;;;;1506727;77;1987;-61
2023/04/08 08:56:47;;;;;;;;;;;20.30;40.10;;;;;;1508408;78;1488;-62
2023/04/08 08:58:49;;;;;;;;;;;20.30;40.20;;;;;;1514945;78;1487;-60
2023/04/08 09:00:51;;;;;;;;;;;20.30;40.10;;;;;;1528831;76;1481;-61
2023/04/08 09:02:53;;;;;;;;;;;20.40;40.00;;;;;;1532619;76;1179;-62
2023/04/08 09:05:01;;;;;;;;;;;20.40;39.90;;;;;;1503583;78;1133;-61
2023/04/08 09:07:10;;;;;;;;;;;20.40;39.70;;;;;;1506178;77;1578;-59
2023/04/08 09:09:12;;;;;;;;;;;20.30;39.30;;;;;;1510297;77;1928;-60
2023/04/08 09:11:14;;;;;;;;;;;20.20;39.00;;;;;;1510941;77;1558;-59
2023/04/08 09:13:16;;;;;;;;;;;20.10;38.80;;;;;;1564781;74;1468;-57
2023/04/08 09:15:18;;;;;;;;;;;20.10;38.90;;;;;;1563539;74;1471;-59
2023/04/08 09:17:37;;;;;;;;;;;20.00;39.00;;;;;;1570792;74;1576;-57
2023/04/08 09:19:39;;;;;;;;;;;20.00;38.90;;;;;;1552875;74;1426;-61
2023/04/08 09:21:41;;;;;;;;;;;20.00;39.10;;;;;;1525304;76;1511;-61
2023/04/08 09:23:43;;;;;;;;;;;20.10;39.00;;;;;;1498166;77;1645;-60
2023/04/08 09:25:45;;;;;;;;;;;20.10;38.80;;;;;;1501954;78;1535;-59
2023/04/08 09:27:47;;;;;;;;;;;20.20;38.60;;;;;;1552020;74;1966;-60
2023/04/08 09:29:49;;;;;;;;;;;20.20;38.40;;;;;;1561543;74;1508;-60
2023/04/08 09:31:54;;;;;;;;;;;20.20;38.10;;;;;;1559821;74;1505;-59
2023/04/08 09:33:57;;;;;;;;;;;20.20;37.80;;;;;;1563918;74;1463;-58
2023/04/08 09:35:59;;;;;;;;;;;20.20;37.70;;;;;;1564404;74;1443;-58
2023/04/08 09:38:01;;;;;;;;;;;20.20;37.20;;;;;;1569912;74;1757;-57
2023/04/08 09:40:03;;;;;;;;;;;20.10;37.60;;;;;;1554953;74;1474;-57
2023/04/08 09:42:05;;;;;;;;;;;20.00;37.80;;;;;;1564386;74;1208;-58
2023/04/08 09:44:08;;;;;;;;;;;20.00;37.50;;;;;;1565545;74;1488;-58
2023/04/08 09:46:11;;;;;;;;;;;20.00;37.70;;;;;;1559721;74;1004;-58
2023/04/08 09:48:15;;;;;;;;;;;20.00;37.70;;;;;;1565248;74;1922;-58
2023/04/08 09:50:17;;;;;;;;;;;20.00;37.80;;;;;;1556116;74;1501;-58
2023/04/08 09:52:20;;;;;;;;;;;19.90;37.70;;;;;;1555720;74;1319;-58
2023/04/08 09:54:22;;;;;;;;;;;19.90;37.70;;;;;;1561504;74;1514;-58
2023/04/08 09:56:24;;;;;;;;;;;19.90;37.90;;;;;;1566716;74;1652;-58
2023/04/08 09:58:28;;;;;;;;;;;19.90;37.80;;;;;;1564527;74;1429;-59
2023/04/08 10:00:32;;;;;;;;;;;19.80;37.60;;;;;;1557979;74;1846;-60
2023/04/08 10:02:35;;;;;;;;;;;19.90;37.90;;;;;;1564495;74;1224;-59
2023/04/08 10:04:38;;;;;;;;;;;19.90;37.90;;;;;;1519959;76;1430;-58
2023/04/08 10:06:40;;;;;;;;;;;20.00;37.70;;;;;;1517295;77;1507;-60
2023/04/08 10:08:42;;;;;;;;;;;19.90;37.80;;;;;;1569744;74;1929;-59
2023/04/08 10:10:44;;;;;;;;;;;19.90;38.00;;;;;;1512663;77;1242;-62
2023/04/08 10:12:46;;;;;;;;;;;19.90;37.90;;;;;;1489608;79;1541;-62
2023/04/08 10:15:06;;;;;;;;;;;19.90;38.10;;;;;;1507182;77;1590;-62
2023/04/08 10:17:21;;;;;;;;;;;19.90;38.20;;;;;;1522286;77;1324;-63
2023/04/08 10:19:37;;;;;;;;;;;19.90;38.20;;;;;;1501833;78;1807;-62
2023/04/08 10:21:46;;;;;;;;;;;19.80;38.30;;;;;;1493597;77;1449;-62
2023/04/08 10:23:45;;;;;;;;;;;19.80;38.40;;;;;;1503540;78;1465;-62
2023/04/08 10:25:47;;;;;;;;;;;19.80;38.40;;;;;;1501977;78;1800;-62
2023/04/08 10:27:49;;;;;;;;;;;19.80;38.30;;;;;;1505326;77;1925;-62
2023/04/08 10:29:51;;;;;;;;;;;19.90;38.50;;;;;;1508162;77;1092;-63
2023/04/08 10:31:52;;;;;;;;;;;19.90;38.50;;;;;;1507155;77;1449;-64
2023/04/08 10:33:55;;;;;;;;;;;19.80;38.40;;;;;;1504725;77;1507;-62
2023/04/08 10:36:12;;;;;;;;;;;19.90;38.60;;;;;;1511116;77;1071;-63
2023/04/08 10:38:14;;;;;;;;;;;20.00;38.50;;;;;;1506198;78;1132;-62
2023/04/08 10:40:19;;;;;;;;;;;19.90;38.50;;;;;;1484662;78;1111;-60
2023/04/08 10:42:23;;;;;;;;;;;19.90;38.60;;;;;;1501497;78;1569;-61
2023/04/08 10:44:25;;;;;;;;;;;19.90;38.60;;;;;;1515176;77;1208;-59
2023/04/08 10:46:27;;;;;;;;;;;19.80;38.40;;;;;;1503018;78;1499;-60
2023/04/08 10:48:29;;;;;;;;;;;20.00;38.30;;;;;;1515004;78;1933;-61
2023/04/08 10:50:31;;;;;;;;;;;19.90;39.00;;;;;;1514977;77;1247;-60
2023/04/08 10:52:33;;;;;;;;;;;20.00;39.10;;;;;;1516958;77;1530;-59
2023/04/08 10:54:35;;;;;;;;;;;20.10;39.20;;;;;;1500791;77;1501;-60
2023/04/08 10:56:39;;;;;;;;;;;20.20;39.10;;;;;;1500244;79;1463;-60
2023/04/08 10:58:48;;;;;;;;;;;20.10;39.00;;;;;;1493377;77;1314;-59
2023/04/08 11:00:50;;;;;;;;;;;20.20;39.00;;;;;;1554136;75;1795;-59
2023/04/08 11:02:53;;;;;;;;;;;20.20;39.30;;;;;;1560845;75;1397;-61
2023/04/08 11:04:55;;;;;;;;;;;20.20;39.30;;;;;;1562943;75;1500;-60
2023/04/08 11:06:57;;;;;;;;;;;20.20;39.50;;;;;;1514307;76;1242;-61
2023/04/08 11:09:01;;;;;;;;;;;20.20;39.50;;;;;;1495925;77;1926;-60
2023/04/08 11:11:07;;;;;;;;;;;20.20;39.40;;;;;;1528036;76;1502;-61
2023/04/08 11:13:08;;;;;;;;;;;20.30;39.50;;;;;;1488589;77;1949;-61
2023/04/08 11:15:10;;;;;;;;;;;20.30;39.60;;;;;;1519175;76;1562;-60
2023/04/08 11:17:14;;;;;;;;;;;20.30;39.60;;;;;;1524551;76;634;-61
2023/04/08 11:19:16;;;;;;;;;;;20.30;39.70;;;;;;1528618;76;593;-61
2023/04/08 11:21:19;;;;;;;;;;;20.30;39.70;;;;;;1509637;78;654;-59
2023/04/08 11:23:21;;;;;;;;;;;20.30;39.60;;;;;;1500378;77;1165;-59
2023/04/08 11:25:23;;;;;;;;;;;20.30;39.60;;;;;;1493783;77;646;-62
2023/04/08 11:27:25;;;;;;;;;;;20.30;39.70;;;;;;1508096;78;531;-61
2023/04/08 11:29:28;;;;;;;;;;;20.40;39.70;;;;;;1533344;76;1938;-60
2023/04/08 11:31:30;;;;;;;;;;;20.40;39.70;;;;;;1511457;78;806;-60
2023/04/08 11:33:33;;;;;;;;;;;20.30;39.70;;;;;;1564189;74;1129;-60
2023/04/08 11:35:37;;;;;;;;;;;20.40;39.70;;;;;;1550566;74;654;-61
2023/04/08 11:37:39;;;;;;;;;;;20.30;39.70;;;;;;1557971;74;1907;-60
2023/04/08 11:39:45;;;;;;;;;;;20.40;39.70;;;;;;1549728;74;724;-60
2023/04/08 11:41:47;;;;;;;;;;;20.50;39.80;;;;;;1563554;74;696;-60
2023/04/08 11:43:53;;;;;;;;;;;20.40;39.80;;;;;;1558480;74;1536;-60
2023/04/08 11:45:55;;;;;;;;;;;20.40;39.80;;;;;;1579849;74;1019;-61
2023/04/08 11:47:57;;;;;;;;;;;20.40;39.80;;;;;;1571388;74;673;-61
2023/04/08 11:49:58;;;;;;;;;;;20.40;39.90;;;;;;1557709;74;1946;-61
2023/04/08 11:52:01;;;;;;;;;;;20.40;39.90;;;;;;1565355;74;724;-61
2023/04/08 11:54:06;;;;;;;;;;;20.40;39.90;;;;;;1568275;74;1128;-60
2023/04/08 11:56:17;;;;;;;;;;;20.40;39.90;;;;;;1554140;76;664;-59
2023/04/08 11:58:19;;;;;;;;;;;20.40;40.00;;;;;;1563924;74;1395;-61
2023/04/08 12:00:21;;;;;;;;;;;20.40;40.00;;;;;;1574827;74;703;-60
2023/04/08 12:02:23;;;;;;;;;;;20.40;40.00;;;;;;1537473;76;621;-61
2023/04/08 12:04:25;;;;;;;;;;;20.40;40.00;;;;;;1508134;77;1128;-61
2023/04/08 12:06:27;;;;;;;;;;;20.30;40.00;;;;;;1530692;76;740;-61
2023/04/08 12:08:29;;;;;;;;;;;20.40;40.00;;;;;;1524334;76;1922;-61